createdAt,value
2023-04-02T00:02:20.790Z,29.67
2023-04-02T00:05:16.800Z,27.52
2023-04-02T00:07:44.825Z,35.83
2023-04-02T00:10:35.797Z,30.92
2023-04-02T00:13:18.420Z,31.00
2023-04-02T00:15:47.686Z,27.23
2023-04-02T00:18:17.675Z,27.63
2023-04-02T00:20:49.131Z,27.67
2023-04-02T00:23:16.170Z,28.80
2023-04-02T00:25:45.564Z,29.73
2023-04-02T00:28:18.690Z,28.73
2023-04-02T00:30:48.385Z,27.42
2023-04-02T00:33:20.420Z,31.10
2023-04-02T00:35:48.769Z,26.42
2023-04-02T00:38:26.981Z,25.65
2023-04-02T00:40:56.681Z,26.80
2023-04-02T00:43:25.760Z,28.27
2023-04-02T00:45:56.326Z,27.38
2023-04-02T00:48:32.537Z,32.08
2023-04-02T00:51:30.509Z,28.95
2023-04-02T00:54:02.371Z,31.70
2023-04-02T00:56:32.617Z,34.95
2023-04-02T00:58:59.528Z,32.65
2023-04-02T01:01:30.282Z,32.63
2023-04-02T01:04:01.563Z,29.65
2023-04-02T01:06:37.848Z,27.60
2023-04-02T01:09:25.348Z,29.98
2023-04-02T01:11:58.242Z,30.40
2023-04-02T01:14:43.828Z,30.58
2023-04-02T01:17:20.092Z,31.05
2023-04-02T01:20:07.709Z,33.40
2023-04-02T01:23:02.840Z,30.33
2023-04-02T01:25:38.351Z,28.45
2023-04-02T01:28:21.149Z,35.42
2023-04-02T01:30:52.289Z,34.60
2023-04-02T01:33:22.001Z,34.15
2023-04-02T01:35:55.988Z,29.48
2023-04-02T01:38:34.852Z,28.92
2023-04-02T01:41:27.266Z,36.67
2023-04-02T01:44:03.758Z,29.65
2023-04-02T01:46:35.373Z,34.80
2023-04-02T01:49:04.841Z,37.63
2023-04-02T01:51:35.436Z,35.03
2023-04-02T01:54:04.499Z,30.33
2023-04-02T01:56:31.459Z,31.02
2023-04-02T01:58:58.603Z,32.47
2023-04-02T02:01:31.140Z,38.53
2023-04-02T02:03:58.037Z,34.80
2023-04-02T02:06:24.832Z,36.00
2023-04-02T02:08:51.492Z,35.47
2023-04-02T02:11:21.915Z,37.17
2023-04-02T02:13:58.126Z,38.38
2023-04-02T02:16:29.263Z,34.63
2023-04-02T02:19:03.658Z,36.00
2023-04-02T02:21:44.968Z,35.07
2023-04-02T02:24:27.029Z,33.33
2023-04-02T02:27:12.548Z,30.13
2023-04-02T02:29:41.137Z,38.80
2023-04-02T02:32:09.911Z,39.08
2023-04-02T02:34:39.993Z,39.22
2023-04-02T02:37:12.921Z,35.67
2023-04-02T02:39:44.707Z,37.63
2023-04-02T02:42:17.290Z,42.83
2023-04-02T02:44:45.100Z,42.17
2023-04-02T02:47:29.096Z,35.63
2023-04-02T02:50:03.090Z,36.10
2023-04-02T02:52:36.222Z,46.45
2023-04-02T02:55:04.993Z,38.50
2023-04-02T02:57:42.842Z,45.95
2023-04-02T03:00:11.846Z,40.42
2023-04-02T03:02:39.988Z,33.20
2023-04-02T03:05:07.651Z,38.70
2023-04-02T03:07:34.497Z,40.92
2023-04-02T03:10:13.225Z,34.88
2023-04-02T03:12:48.864Z,39.75
2023-04-02T03:15:15.762Z,37.75
2023-04-02T03:17:51.668Z,34.00
2023-04-02T03:20:35.879Z,39.90
2023-04-02T03:23:31.160Z,34.33
2023-04-02T03:26:09.480Z,39.08
2023-04-02T03:28:42.988Z,32.72
2023-04-02T03:31:13.741Z,36.13
2023-04-02T03:33:44.561Z,33.30
2023-04-02T03:36:20.712Z,35.47
2023-04-02T03:39:05.741Z,37.42
2023-04-02T03:41:40.230Z,35.78
2023-04-02T03:44:17.356Z,35.30
2023-04-02T03:46:57.410Z,37.17
2023-04-02T03:49:32.093Z,37.67
2023-04-02T03:52:20.595Z,45.47
2023-04-02T03:54:54.233Z,36.38
2023-04-02T03:57:46.180Z,47.22
2023-04-02T04:00:36.933Z,38.00
2023-04-02T04:03:10.945Z,59.25
2023-04-02T04:05:44.343Z,35.22
2023-04-02T04:08:18.057Z,34.13
2023-04-02T04:10:44.823Z,38.75
2023-04-02T04:13:18.904Z,44.08
2023-04-02T04:15:45.790Z,39.78
2023-04-02T04:18:34.858Z,39.63
2023-04-02T04:21:05.057Z,41.33
2023-04-02T04:23:39.297Z,44.35
2023-04-02T04:26:12.133Z,45.10
2023-04-02T04:28:59.892Z,43.00
2023-04-02T04:31:39.617Z,42.22
2023-04-02T04:34:13.071Z,43.28
2023-04-02T04:36:54.451Z,44.75
2023-04-02T04:39:42.976Z,45.00
2023-04-02T04:42:17.586Z,44.95
2023-04-02T04:45:00.208Z,43.70
2023-04-02T04:47:34.220Z,51.00
2023-04-02T04:50:26.408Z,43.85
2023-04-02T04:52:53.302Z,44.42
2023-04-02T04:55:29.070Z,51.17
2023-04-02T04:58:01.087Z,48.38
2023-04-02T05:00:41.974Z,48.15
2023-04-02T05:03:22.613Z,42.42
2023-04-02T05:05:49.538Z,37.75
2023-04-02T05:08:27.587Z,38.70
2023-04-02T05:11:01.346Z,41.60
2023-04-02T05:13:44.766Z,41.22
2023-04-02T05:16:17.229Z,39.75
2023-04-02T05:18:52.256Z,43.22
2023-04-02T05:21:33.572Z,43.08
2023-04-02T05:24:32.632Z,41.28
2023-04-02T05:27:02.990Z,48.63
2023-04-02T05:29:37.026Z,41.92
2023-04-02T05:32:05.109Z,48.45
2023-04-02T05:34:38.702Z,46.42
2023-04-02T05:37:07.226Z,44.90
2023-04-02T05:39:34.067Z,43.00
2023-04-02T05:42:06.083Z,43.00
2023-04-02T05:44:36.307Z,46.10
2023-04-02T05:47:08.279Z,41.92
2023-04-02T05:49:53.882Z,46.22
2023-04-02T05:52:24.158Z,45.42
2023-04-02T05:55:11.600Z,36.60
2023-04-02T05:57:48.344Z,41.00
2023-04-02T06:00:42.640Z,41.30
2023-04-02T06:03:46.754Z,36.13
2023-04-02T06:06:27.902Z,46.95
2023-04-02T06:08:59.380Z,40.17
2023-04-02T06:11:32.467Z,39.63
2023-04-02T06:13:59.688Z,33.30
2023-04-02T06:16:28.021Z,40.03
2023-04-02T06:18:55.288Z,34.67
2023-04-02T06:21:23.975Z,33.05
2023-04-02T06:23:56.453Z,39.35
2023-04-02T06:26:29.086Z,34.35
2023-04-02T06:29:04.997Z,35.60
2023-04-02T06:32:04.283Z,34.13
2023-04-02T06:34:32.290Z,30.40
2023-04-02T06:37:01.624Z,36.90
2023-04-02T06:39:28.344Z,39.53
2023-04-02T06:42:09.724Z,35.72
2023-04-02T06:44:37.599Z,32.60
2023-04-02T06:47:21.608Z,35.70
2023-04-02T06:49:52.835Z,31.23
2023-04-02T06:52:33.398Z,30.10
2023-04-02T06:55:07.503Z,31.80
2023-04-02T06:57:35.879Z,34.05
2023-04-02T07:00:02.930Z,36.10
2023-04-02T07:02:33.848Z,32.10
2023-04-02T07:05:07.305Z,31.23
2023-04-02T07:07:34.059Z,32.53
2023-04-02T07:10:00.704Z,37.17
2023-04-02T07:12:27.564Z,32.42
2023-04-02T07:14:54.393Z,29.58
2023-04-02T07:17:22.690Z,31.00
2023-04-02T07:19:49.860Z,36.05
2023-04-02T07:22:20.074Z,33.00
2023-04-02T07:24:47.144Z,31.65
2023-04-02T07:27:14.886Z,30.35
2023-04-02T07:29:44.912Z,32.75
2023-04-02T07:32:12.916Z,35.63
2023-04-02T07:34:41.412Z,35.70
2023-04-02T07:37:08.493Z,34.33
2023-04-02T07:39:37.784Z,33.40
2023-04-02T07:42:21.908Z,34.38
2023-04-02T07:44:48.533Z,33.38
2023-04-02T07:47:15.472Z,39.08
2023-04-02T07:49:45.155Z,34.67
2023-04-02T07:52:12.174Z,37.20
2023-04-02T07:54:39.972Z,32.63
2023-04-02T07:57:06.790Z,37.40
2023-04-02T07:59:33.739Z,38.78
2023-04-02T08:02:00.506Z,31.65
2023-04-02T08:04:27.218Z,34.40
2023-04-02T08:06:54.042Z,34.38
2023-04-02T08:09:20.943Z,35.33
2023-04-02T08:11:47.782Z,34.35
2023-04-02T08:14:14.777Z,29.85
2023-04-02T08:16:56.031Z,35.05
2023-04-02T08:19:23.335Z,30.08
2023-04-02T08:21:51.753Z,30.92
2023-04-02T08:24:19.474Z,27.08
2023-04-02T08:26:47.645Z,36.47
2023-04-02T08:29:14.698Z,30.55
2023-04-02T08:31:41.766Z,31.02
2023-04-02T08:34:09.260Z,30.48
2023-04-02T08:36:39.228Z,31.10
2023-04-02T08:39:11.123Z,27.13
2023-04-02T08:41:42.831Z,26.52
2023-04-02T08:44:32.517Z,28.95
2023-04-02T08:47:03.462Z,29.63
2023-04-02T08:49:37.678Z,30.60
2023-04-02T08:52:04.715Z,28.50
2023-04-02T08:54:34.853Z,33.70
2023-04-02T08:57:08.116Z,39.05
2023-04-02T08:59:38.299Z,34.58
2023-04-02T09:02:05.304Z,32.60
2023-04-02T09:04:33.256Z,28.88
2023-04-02T09:07:06.010Z,29.42
2023-04-02T09:09:34.795Z,30.08
2023-04-02T09:12:06.619Z,27.65
2023-04-02T09:14:45.937Z,28.38
2023-04-02T09:17:24.490Z,34.05
2023-04-02T09:20:18.888Z,25.80
2023-04-02T09:22:47.394Z,27.30
2023-04-02T09:25:18.329Z,29.20
2023-04-02T09:27:49.465Z,26.98
2023-04-02T09:30:35.398Z,27.05
2023-04-02T09:33:07.762Z,25.00
2023-04-02T09:35:37.268Z,28.10
2023-04-02T09:38:10.069Z,26.85
2023-04-02T09:40:59.683Z,29.30
2023-04-02T09:43:29.094Z,29.80
2023-04-02T09:46:16.533Z,30.33
2023-04-02T09:48:49.195Z,30.23
2023-04-02T09:51:23.061Z,35.20
2023-04-02T09:53:51.958Z,32.05
2023-04-02T09:56:26.568Z,30.65
2023-04-02T09:59:06.587Z,29.55
2023-04-02T10:01:35.316Z,27.85
2023-04-02T10:04:04.189Z,26.73
2023-04-02T10:06:35.897Z,30.20
2023-04-02T10:09:29.016Z,36.05
2023-04-02T10:11:56.267Z,33.85
2023-04-02T10:14:30.278Z,32.75
2023-04-02T10:16:58.837Z,42.60
2023-04-02T10:19:29.991Z,41.90
2023-04-02T10:21:57.863Z,42.28
2023-04-02T10:24:27.787Z,45.55
2023-04-02T10:27:03.698Z,40.15
2023-04-02T10:29:51.706Z,42.85
2023-04-02T10:32:32.555Z,45.30
2023-04-02T10:35:33.479Z,38.67
2023-04-02T10:38:18.751Z,39.38
2023-04-02T10:40:45.508Z,47.65
2023-04-02T10:43:39.532Z,47.28
2023-04-02T10:46:26.475Z,47.80
2023-04-02T10:49:14.063Z,43.50
2023-04-02T10:51:42.003Z,49.55
2023-04-02T10:54:39.505Z,43.65
2023-04-02T10:57:28.645Z,44.53
2023-04-02T11:00:01.568Z,43.63
2023-04-02T11:02:36.383Z,48.15
2023-04-02T11:05:11.861Z,47.67
2023-04-02T11:08:11.219Z,46.65
2023-04-02T11:10:43.487Z,47.70
2023-04-02T11:13:20.645Z,48.72
2023-04-02T11:15:47.472Z,45.10
2023-04-02T11:18:45.052Z,50.65
2023-04-02T11:21:30.150Z,44.97
2023-04-02T11:24:00.039Z,49.13
2023-04-02T11:26:41.515Z,49.40
2023-04-02T11:29:18.791Z,47.45
2023-04-02T11:31:46.309Z,45.60
2023-04-02T11:34:41.092Z,51.83
2023-04-02T11:37:11.075Z,39.03
2023-04-02T11:39:53.930Z,48.13
2023-04-02T11:42:37.344Z,45.15
2023-04-02T11:45:28.432Z,48.60
2023-04-02T11:48:06.211Z,44.10
2023-04-02T11:50:44.219Z,43.17
2023-04-02T11:53:11.067Z,41.80
2023-04-02T11:55:38.829Z,42.90
2023-04-02T11:58:17.767Z,36.90
2023-04-02T12:01:03.241Z,41.75
2023-04-02T12:04:08.052Z,41.60
2023-04-02T12:06:46.928Z,41.05
2023-04-02T12:09:25.536Z,38.72
2023-04-02T12:11:55.620Z,34.50
2023-04-02T12:14:44.356Z,36.05
2023-04-02T12:17:30.808Z,34.88
2023-04-02T12:20:02.756Z,30.33
2023-04-02T12:22:49.643Z,29.67
2023-04-02T12:25:35.324Z,32.40
2023-04-02T12:33:38.992Z,27.15
2023-04-02T12:36:19.272Z,30.85
2023-04-02T12:38:54.417Z,30.75
2023-04-02T12:41:30.976Z,23.02
2023-04-02T12:44:06.614Z,22.60
2023-04-02T12:46:35.143Z,21.00
2023-04-02T12:49:07.958Z,22.10
2023-04-02T12:51:38.124Z,16.67
2023-04-02T12:54:05.638Z,19.70
2023-04-02T12:56:32.452Z,18.38
2023-04-02T12:59:00.899Z,16.98
2023-04-02T13:01:29.450Z,14.30
2023-04-02T13:04:06.702Z,15.65
2023-04-02T13:06:37.064Z,17.20
2023-04-02T13:09:06.826Z,15.23
2023-04-02T13:11:39.619Z,19.20
2023-04-02T13:14:09.221Z,19.60
2023-04-02T13:16:38.398Z,18.50
2023-04-02T13:19:17.447Z,19.52
2023-04-02T13:21:45.500Z,20.20
2023-04-02T13:24:20.803Z,21.50
2023-04-02T13:29:23.890Z,19.58
2023-04-02T13:31:51.686Z,20.40
2023-04-02T13:34:18.563Z,18.13
2023-04-02T13:36:45.735Z,21.25
2023-04-02T13:39:12.423Z,25.83
2023-04-02T13:41:44.193Z,22.15
2023-04-02T13:44:27.819Z,25.83
2023-04-02T13:46:55.123Z,26.73
2023-04-02T13:49:22.894Z,29.05
2023-04-02T13:51:54.316Z,31.17
2023-04-02T13:54:31.548Z,30.70
2023-04-02T13:56:58.442Z,32.47
2023-04-02T13:59:26.244Z,33.45
2023-04-02T14:01:57.616Z,36.55
2023-04-02T14:04:28.119Z,36.72
2023-04-02T14:07:03.839Z,35.88
2023-04-02T14:09:55.122Z,41.83
2023-04-02T14:12:41.557Z,41.65
2023-04-02T14:15:20.027Z,47.90
2023-04-02T14:18:14.560Z,47.55
2023-04-02T14:20:51.618Z,59.92
2023-04-02T14:23:18.392Z,59.38
2023-04-02T14:26:04.896Z,48.65
2023-04-02T14:28:49.624Z,44.30
2023-04-02T14:31:16.501Z,46.22
2023-04-02T14:33:52.164Z,42.92
2023-04-02T14:36:24.812Z,39.92
2023-04-02T14:39:13.019Z,33.67
2023-04-02T14:41:57.847Z,42.50
2023-04-02T14:44:26.784Z,37.63
2023-04-02T14:47:02.856Z,40.05
2023-04-02T14:49:39.611Z,34.92
2023-04-02T14:52:12.085Z,44.88
2023-04-02T14:55:05.155Z,48.40
2023-04-02T14:57:33.388Z,51.97
2023-04-02T15:00:25.454Z,56.28
2023-04-02T15:03:09.227Z,62.42
2023-04-02T15:05:39.960Z,62.22
2023-04-02T15:08:13.281Z,59.83
2023-04-02T15:11:12.467Z,67.20
2023-04-02T15:14:04.788Z,76.47
2023-04-02T15:16:33.436Z,74.90
2023-04-02T15:19:01.611Z,72.95
2023-04-02T15:21:56.233Z,70.38
2023-04-02T15:24:50.815Z,74.28
2023-04-02T15:27:39.082Z,74.88
2023-04-02T15:30:09.126Z,73.32
2023-04-02T15:32:40.766Z,72.22
2023-04-02T15:35:16.663Z,68.60
2023-04-02T15:38:08.469Z,76.97
2023-04-02T15:40:41.439Z,68.35
2023-04-02T15:43:30.016Z,74.90
2023-04-02T15:46:29.057Z,70.60
2023-04-02T15:49:01.448Z,70.20
2023-04-02T15:51:45.707Z,66.43
2023-04-02T15:54:31.547Z,65.13
2023-04-02T15:57:30.447Z,49.53
2023-04-02T16:00:30.715Z,56.47
2023-04-02T16:03:03.816Z,56.97
2023-04-02T16:05:42.802Z,80.85
2023-04-02T16:08:31.392Z,60.20
2023-04-02T16:10:58.150Z,62.15
2023-04-02T16:13:33.842Z,61.33
2023-04-02T16:16:11.150Z,63.63
2023-04-02T16:18:53.682Z,69.20
2023-04-02T16:21:27.418Z,66.53
2023-04-02T16:23:54.580Z,73.93
2023-04-02T16:26:31.352Z,61.55
2023-04-02T16:29:03.029Z,62.88
2023-04-02T16:31:50.770Z,63.65
2023-04-02T16:34:26.372Z,57.75
2023-04-02T16:37:18.940Z,54.08
2023-04-02T16:40:11.386Z,54.63
2023-04-02T16:43:17.147Z,55.28
2023-04-02T16:46:40.762Z,49.58
2023-04-02T16:49:57.277Z,50.35
2023-04-02T16:53:01.474Z,59.55
2023-04-02T16:55:34.177Z,62.53
2023-04-02T16:58:25.140Z,69.18
2023-04-02T17:01:04.873Z,84.75
2023-04-02T17:03:51.032Z,72.97
2023-04-02T17:06:28.972Z,72.75
2023-04-02T17:09:14.142Z,76.35
2023-04-02T17:11:47.900Z,73.82
2023-04-02T17:14:23.515Z,59.55
2023-04-02T17:16:57.625Z,53.85
2023-04-02T17:19:29.663Z,58.38
2023-04-02T17:22:04.433Z,60.40
2023-04-02T17:24:33.710Z,64.82
2023-04-02T17:27:08.933Z,53.25
2023-04-02T17:32:04.395Z,54.28
2023-04-02T17:34:34.572Z,54.42
2023-04-02T17:37:20.548Z,48.22
2023-04-02T17:40:00.394Z,48.97
2023-04-02T17:42:39.215Z,44.30
2023-04-02T17:45:18.125Z,49.42
2023-04-02T17:47:50.824Z,42.15
2023-04-02T17:50:17.519Z,39.97
2023-04-02T17:53:06.321Z,51.55
2023-04-02T17:55:58.080Z,41.33
2023-04-02T17:58:36.744Z,34.38
2023-04-02T18:01:22.581Z,32.97
2023-04-02T18:04:29.383Z,31.85
2023-04-02T18:07:21.075Z,30.48
2023-04-02T18:10:13.081Z,37.28
2023-04-02T18:12:55.669Z,30.25
2023-04-02T18:15:47.569Z,36.70
2023-04-02T18:18:39.441Z,36.28
2023-04-02T18:21:16.944Z,29.92
2023-04-02T18:24:21.321Z,34.88
2023-04-02T18:26:50.669Z,33.17
2023-04-02T18:29:36.806Z,25.25
2023-04-02T18:32:23.733Z,28.73
2023-04-02T18:35:11.811Z,30.67
2023-04-02T18:37:53.048Z,30.63
2023-04-02T18:40:43.770Z,28.50
2023-04-02T18:43:31.820Z,22.35
2023-04-02T18:46:10.530Z,29.70
2023-04-02T18:48:44.576Z,26.77
2023-04-02T18:51:24.498Z,20.98
2023-04-02T18:53:55.895Z,23.13
2023-04-02T18:56:23.758Z,23.63
2023-04-02T18:58:59.330Z,22.13
2023-04-02T19:01:33.245Z,24.45
2023-04-02T19:04:06.776Z,26.55
2023-04-02T19:06:45.209Z,26.23
2023-04-02T19:09:17.444Z,25.65
2023-04-02T19:11:44.508Z,20.80
2023-04-02T19:14:13.857Z,21.73
2023-04-02T19:16:44.856Z,21.67
2023-04-02T19:19:19.941Z,21.58
2023-04-02T19:22:08.861Z,18.73
2023-04-02T19:24:55.146Z,20.35
2023-04-02T19:27:33.929Z,23.15
2023-04-02T19:30:13.201Z,24.45
2023-04-02T19:33:09.951Z,19.00
2023-04-02T19:36:04.356Z,24.17
2023-04-02T19:38:56.281Z,21.15
2023-04-02T19:41:29.037Z,18.08
2023-04-02T19:43:56.329Z,22.05
2023-04-02T19:46:24.697Z,20.65
2023-04-02T19:48:57.940Z,22.65
2023-04-02T19:51:24.686Z,21.42
2023-04-02T19:53:51.548Z,22.98
2023-04-02T19:56:18.585Z,18.58
2023-04-02T19:58:45.433Z,24.05
2023-04-02T20:01:12.211Z,20.98
2023-04-02T20:03:39.207Z,22.00
2023-04-02T20:06:13.768Z,26.23
2023-04-02T20:08:40.535Z,21.10
2023-04-02T20:11:08.154Z,23.70
2023-04-02T20:13:35.221Z,25.27
2023-04-02T20:16:03.618Z,24.25
2023-04-02T20:18:31.607Z,21.05
2023-04-02T20:20:58.664Z,26.45
2023-04-02T20:23:25.498Z,26.50
2023-04-02T20:25:56.264Z,22.08
2023-04-02T20:28:24.486Z,25.10
2023-04-02T20:30:52.000Z,24.55
2023-04-02T20:33:25.129Z,25.52
2023-04-02T20:35:52.443Z,26.50
2023-04-02T20:38:19.697Z,24.77
2023-04-02T20:40:52.928Z,24.38
2023-04-02T20:43:19.681Z,21.65
2023-04-02T20:46:04.707Z,26.20
2023-04-02T20:48:32.771Z,21.77
2023-04-02T20:51:01.912Z,21.23
2023-04-02T20:53:35.576Z,20.55
2023-04-02T20:56:13.527Z,24.48
2023-04-02T20:58:47.093Z,22.65
2023-04-02T21:01:17.543Z,25.50
2023-04-02T21:03:44.543Z,21.52
2023-04-02T21:06:19.401Z,28.52
2023-04-02T21:08:46.345Z,29.67
2023-04-02T21:11:13.293Z,30.35
2023-04-02T21:13:42.582Z,27.77
2023-04-02T21:16:23.738Z,29.80
2023-04-02T21:18:52.995Z,31.23
2023-04-02T21:21:21.230Z,32.50
2023-04-02T21:23:56.258Z,29.17
2023-04-02T21:26:23.273Z,28.05
2023-04-02T21:28:53.272Z,28.10
2023-04-02T21:31:22.756Z,27.95
2023-04-02T21:33:51.727Z,26.95
2023-04-02T21:36:27.220Z,25.35
2023-04-02T21:38:58.784Z,28.95
2023-04-02T21:41:28.076Z,20.38
2023-04-02T21:43:56.477Z,22.13
2023-04-02T21:46:25.819Z,24.80
2023-04-02T21:49:03.255Z,24.52
2023-04-02T21:51:32.221Z,22.48
2023-04-02T21:53:59.762Z,23.45
2023-04-02T21:56:34.766Z,25.42
2023-04-02T21:59:02.464Z,22.08
2023-04-02T22:01:32.004Z,22.27
2023-04-02T22:04:01.565Z,21.17
2023-04-02T22:06:30.451Z,22.45
2023-04-02T22:09:00.473Z,29.02
2023-04-02T22:11:30.032Z,30.88
2023-04-02T22:13:58.154Z,28.33
2023-04-02T22:16:28.381Z,27.48
2023-04-02T22:18:57.525Z,32.90
2023-04-02T22:21:25.779Z,30.40
2023-04-02T22:23:53.082Z,32.20
2023-04-02T22:26:21.813Z,25.10
2023-04-02T22:28:49.210Z,26.52
2023-04-02T22:31:18.339Z,24.48
2023-04-02T22:33:46.241Z,24.70
2023-04-02T22:36:14.226Z,22.33
2023-04-02T22:38:41.347Z,23.20
2023-04-02T22:41:13.287Z,20.50
2023-04-02T22:43:41.398Z,22.75
2023-04-02T22:46:09.270Z,21.08
2023-04-02T22:48:39.269Z,21.27
2023-04-02T22:51:07.648Z,20.58
2023-04-02T22:53:53.038Z,18.52
2023-04-02T22:56:22.208Z,18.52
2023-04-02T22:58:49.590Z,19.25
2023-04-02T23:01:22.152Z,20.98
2023-04-02T23:03:49.310Z,24.23
2023-04-02T23:06:18.319Z,26.60
2023-04-02T23:08:46.226Z,22.23
2023-04-02T23:11:18.625Z,21.20
2023-04-02T23:13:47.967Z,25.95
2023-04-02T23:16:24.862Z,31.20
2023-04-02T23:18:51.809Z,33.75
2023-04-02T23:21:19.411Z,29.42
2023-04-02T23:23:46.999Z,32.75
2023-04-02T23:26:27.308Z,32.33
2023-04-02T23:28:54.031Z,32.72
2023-04-02T23:31:22.597Z,30.70
2023-04-02T23:33:53.803Z,30.58
2023-04-02T23:36:26.300Z,37.17
2023-04-02T23:38:55.717Z,35.65
2023-04-02T23:41:24.338Z,29.05
2023-04-02T23:43:51.153Z,32.70
2023-04-02T23:46:17.921Z,34.38
2023-04-02T23:48:49.915Z,31.52
2023-04-02T23:51:17.119Z,35.40
2023-04-02T23:53:43.903Z,35.28
2023-04-02T23:56:11.369Z,32.78
2023-04-02T23:58:38.114Z,29.80
